sensor_id;sensor_type;location;lat;lon;timestamp;temperature;humidity
6518;DHT22;3292;48.944;9.240;2024-03-25T00:00:53;6.00;99.90
6518;DHT22;3292;48.944;9.240;2024-03-25T00:03:21;6.00;99.90
6518;DHT22;3292;48.944;9.240;2024-03-25T00:05:47;6.00;99.90
6518;DHT22;3292;48.944;9.240;2024-03-25T00:08:14;6.00;99.90
6518;DHT22;3292;48.944;9.240;2024-03-25T00:10:40;6.00;99.90
6518;DHT22;3292;48.944;9.240;2024-03-25T00:13:06;6.00;99.90
6518;DHT22;3292;48.944;9.240;2024-03-25T00:15:32;6.00;99.90
6518;DHT22;3292;48.944;9.240;2024-03-25T00:17:59;6.00;99.90
6518;DHT22;3292;48.944;9.240;2024-03-25T00:20:27;6.00;99.90
6518;DHT22;3292;48.944;9.240;2024-03-25T00:22:53;6.00;99.90
6518;DHT22;3292;48.944;9.240;2024-03-25T00:25:20;6.00;99.90
6518;DHT22;3292;48.944;9.240;2024-03-25T00:27:47;6.00;99.90
6518;DHT22;3292;48.944;9.240;2024-03-25T00:30:13;6.00;99.90
6518;DHT22;3292;48.944;9.240;2024-03-25T00:32:40;6.00;99.90
6518;DHT22;3292;48.944;9.240;2024-03-25T00:35:07;5.90;99.90
6518;DHT22;3292;48.944;9.240;2024-03-25T00:37:35;6.00;99.90
6518;DHT22;3292;48.944;9.240;2024-03-25T00:40:01;5.90;99.90
6518;DHT22;3292;48.944;9.240;2024-03-25T00:42:28;5.90;99.90
6518;DHT22;3292;48.944;9.240;2024-03-25T00:44:54;5.90;99.90
6518;DHT22;3292;48.944;9.240;2024-03-25T00:47:20;5.90;99.90
6518;DHT22;3292;48.944;9.240;2024-03-25T00:49:47;5.90;99.90
6518;DHT22;3292;48.944;9.240;2024-03-25T00:52:14;5.90;99.90
6518;DHT22;3292;48.944;9.240;2024-03-25T00:54:41;5.90;99.90
6518;DHT22;3292;48.944;9.240;2024-03-25T00:57:08;5.90;99.90
6518;DHT22;3292;48.944;9.240;2024-03-25T00:59:34;5.90;99.90
6518;DHT22;3292;48.944;9.240;2024-03-25T01:02:00;5.90;99.90
6518;DHT22;3292;48.944;9.240;2024-03-25T01:04:26;5.80;99.90
6518;DHT22;3292;48.944;9.240;2024-03-25T01:06:53;5.90;99.90
6518;DHT22;3292;48.944;9.240;2024-03-25T01:09:19;5.80;99.90
6518;DHT22;3292;48.944;9.240;2024-03-25T01:11:48;5.80;99.90
6518;DHT22;3292;48.944;9.240;2024-03-25T01:14:14;5.90;99.90
6518;DHT22;3292;48.944;9.240;2024-03-25T01:16:41;5.90;99.90
6518;DHT22;3292;48.944;9.240;2024-03-25T01:19:08;5.90;99.90
6518;DHT22;3292;48.944;9.240;2024-03-25T01:21:35;5.80;99.90
6518;DHT22;3292;48.944;9.240;2024-03-25T01:24:01;5.80;99.90
6518;DHT22;3292;48.944;9.240;2024-03-25T01:26:27;5.80;99.90
6518;DHT22;3292;48.944;9.240;2024-03-25T01:28:55;5.80;99.90
6518;DHT22;3292;48.944;9.240;2024-03-25T01:31:22;5.80;99.90
6518;DHT22;3292;48.944;9.240;2024-03-25T01:33:48;5.80;99.90
6518;DHT22;3292;48.944;9.240;2024-03-25T01:36:15;5.80;99.90
6518;DHT22;3292;48.944;9.240;2024-03-25T01:38:43;5.90;99.90
6518;DHT22;3292;48.944;9.240;2024-03-25T01:41:10;5.80;99.90
6518;DHT22;3292;48.944;9.240;2024-03-25T01:43:36;5.80;99.90
6518;DHT22;3292;48.944;9.240;2024-03-25T01:46:05;5.80;99.90
6518;DHT22;3292;48.944;9.240;2024-03-25T01:48:32;5.90;99.90
6518;DHT22;3292;48.944;9.240;2024-03-25T01:51:00;5.80;99.90
6518;DHT22;3292;48.944;9.240;2024-03-25T01:53:28;5.80;99.90
6518;DHT22;3292;48.944;9.240;2024-03-25T01:55:56;5.80;99.90
6518;DHT22;3292;48.944;9.240;2024-03-25T01:58:23;5.80;99.90
6518;DHT22;3292;48.944;9.240;2024-03-25T02:00:51;5.80;99.90
6518;DHT22;3292;48.944;9.240;2024-03-25T02:03:19;5.80;99.90
6518;DHT22;3292;48.944;9.240;2024-03-25T02:05:47;5.80;99.90
6518;DHT22;3292;48.944;9.240;2024-03-25T02:08:13;5.80;99.90
6518;DHT22;3292;48.944;9.240;2024-03-25T02:10:41;5.80;99.90
6518;DHT22;3292;48.944;9.240;2024-03-25T02:13:07;5.80;99.90
6518;DHT22;3292;48.944;9.240;2024-03-25T02:15:35;5.80;99.90
6518;DHT22;3292;48.944;9.240;2024-03-25T02:18:01;5.80;99.90
6518;DHT22;3292;48.944;9.240;2024-03-25T02:20:29;5.80;99.90
6518;DHT22;3292;48.944;9.240;2024-03-25T02:22:55;5.80;99.90
6518;DHT22;3292;48.944;9.240;2024-03-25T02:25:22;5.70;99.90
6518;DHT22;3292;48.944;9.240;2024-03-25T02:27:49;5.70;99.90
6518;DHT22;3292;48.944;9.240;2024-03-25T02:30:16;5.70;99.90
6518;DHT22;3292;48.944;9.240;2024-03-25T02:32:42;5.70;99.90
6518;DHT22;3292;48.944;9.240;2024-03-25T02:35:12;5.70;99.90
6518;DHT22;3292;48.944;9.240;2024-03-25T02:37:39;5.70;99.90
6518;DHT22;3292;48.944;9.240;2024-03-25T02:40:08;5.70;99.90
6518;DHT22;3292;48.944;9.240;2024-03-25T02:42:35;5.70;99.90
6518;DHT22;3292;48.944;9.240;2024-03-25T02:45:05;5.70;99.90
6518;DHT22;3292;48.944;9.240;2024-03-25T02:47:31;5.70;99.90
6518;DHT22;3292;48.944;9.240;2024-03-25T02:49:57;5.70;99.90
6518;DHT22;3292;48.944;9.240;2024-03-25T02:52:24;5.70;99.90
6518;DHT22;3292;48.944;9.240;2024-03-25T02:54:51;5.70;99.90
6518;DHT22;3292;48.944;9.240;2024-03-25T02:57:17;5.70;99.90
6518;DHT22;3292;48.944;9.240;2024-03-25T02:59:44;5.70;99.90
6518;DHT22;3292;48.944;9.240;2024-03-25T03:02:11;5.60;99.90
6518;DHT22;3292;48.944;9.240;2024-03-25T03:04:37;5.60;99.90
6518;DHT22;3292;48.944;9.240;2024-03-25T03:07:04;5.60;99.90
6518;DHT22;3292;48.944;9.240;2024-03-25T03:09:31;5.60;99.90
6518;DHT22;3292;48.944;9.240;2024-03-25T03:11:57;5.60;99.90
6518;DHT22;3292;48.944;9.240;2024-03-25T03:14:23;5.60;99.90
6518;DHT22;3292;48.944;9.240;2024-03-25T03:16:49;5.60;99.90
6518;DHT22;3292;48.944;9.240;2024-03-25T03:19:21;5.60;99.90
6518;DHT22;3292;48.944;9.240;2024-03-25T03:21:47;5.60;99.90
6518;DHT22;3292;48.944;9.240;2024-03-25T03:24:13;5.60;99.90
6518;DHT22;3292;48.944;9.240;2024-03-25T03:26:39;5.60;99.90
6518;DHT22;3292;48.944;9.240;2024-03-25T03:29:06;5.60;99.90
6518;DHT22;3292;48.944;9.240;2024-03-25T03:31:32;5.60;99.90
6518;DHT22;3292;48.944;9.240;2024-03-25T03:33:59;5.50;99.90
6518;DHT22;3292;48.944;9.240;2024-03-25T03:36:26;5.60;99.90
6518;DHT22;3292;48.944;9.240;2024-03-25T03:38:53;5.60;99.90
6518;DHT22;3292;48.944;9.240;2024-03-25T03:41:20;5.60;99.90
6518;DHT22;3292;48.944;9.240;2024-03-25T03:43:46;5.50;99.90
6518;DHT22;3292;48.944;9.240;2024-03-25T03:46:12;5.60;99.90
6518;DHT22;3292;48.944;9.240;2024-03-25T03:48:39;5.50;99.90
6518;DHT22;3292;48.944;9.240;2024-03-25T03:51:05;5.50;99.90
6518;DHT22;3292;48.944;9.240;2024-03-25T03:53:34;5.40;99.90
6518;DHT22;3292;48.944;9.240;2024-03-25T03:56:01;5.40;99.90
6518;DHT22;3292;48.944;9.240;2024-03-25T03:58:28;5.40;99.90
6518;DHT22;3292;48.944;9.240;2024-03-25T04:00:54;5.40;99.90
6518;DHT22;3292;48.944;9.240;2024-03-25T04:03:21;5.40;99.90
6518;DHT22;3292;48.944;9.240;2024-03-25T04:05:47;5.40;99.90
6518;DHT22;3292;48.944;9.240;2024-03-25T04:08:13;5.40;99.90
6518;DHT22;3292;48.944;9.240;2024-03-25T04:10:43;5.40;99.90
6518;DHT22;3292;48.944;9.240;2024-03-25T04:13:10;5.40;99.90
6518;DHT22;3292;48.944;9.240;2024-03-25T04:15:38;5.40;99.90
6518;DHT22;3292;48.944;9.240;2024-03-25T04:18:05;5.40;99.90
6518;DHT22;3292;48.944;9.240;2024-03-25T04:20:36;5.40;99.90
6518;DHT22;3292;48.944;9.240;2024-03-25T04:23:04;5.40;99.90
6518;DHT22;3292;48.944;9.240;2024-03-25T04:25:32;5.40;99.90
6518;DHT22;3292;48.944;9.240;2024-03-25T04:28:01;5.40;99.90
6518;DHT22;3292;48.944;9.240;2024-03-25T04:30:26;5.40;99.90
6518;DHT22;3292;48.944;9.240;2024-03-25T04:32:53;5.40;99.90
6518;DHT22;3292;48.944;9.240;2024-03-25T04:35:19;5.30;99.90
6518;DHT22;3292;48.944;9.240;2024-03-25T04:37:46;5.30;99.90
6518;DHT22;3292;48.944;9.240;2024-03-25T04:40:12;5.30;99.90
6518;DHT22;3292;48.944;9.240;2024-03-25T04:42:39;5.30;99.90
6518;DHT22;3292;48.944;9.240;2024-03-25T04:45:06;5.30;99.90
6518;DHT22;3292;48.944;9.240;2024-03-25T04:47:32;5.30;99.90
6518;DHT22;3292;48.944;9.240;2024-03-25T04:49:58;5.30;99.90
6518;DHT22;3292;48.944;9.240;2024-03-25T04:52:24;5.20;99.90
6518;DHT22;3292;48.944;9.240;2024-03-25T04:54:50;5.20;99.90
6518;DHT22;3292;48.944;9.240;2024-03-25T04:57:16;5.20;99.90
6518;DHT22;3292;48.944;9.240;2024-03-25T04:59:42;5.10;99.90
6518;DHT22;3292;48.944;9.240;2024-03-25T05:02:09;5.10;99.90
6518;DHT22;3292;48.944;9.240;2024-03-25T05:04:35;5.00;99.90
6518;DHT22;3292;48.944;9.240;2024-03-25T05:07:01;4.90;99.90
6518;DHT22;3292;48.944;9.240;2024-03-25T05:09:27;4.90;99.90
6518;DHT22;3292;48.944;9.240;2024-03-25T05:11:53;4.90;99.90
6518;DHT22;3292;48.944;9.240;2024-03-25T05:14:19;4.80;99.90
6518;DHT22;3292;48.944;9.240;2024-03-25T05:16:45;4.80;99.90
6518;DHT22;3292;48.944;9.240;2024-03-25T05:19:12;4.80;99.90
6518;DHT22;3292;48.944;9.240;2024-03-25T05:21:38;4.80;99.90
6518;DHT22;3292;48.944;9.240;2024-03-25T05:24:04;4.80;99.90
6518;DHT22;3292;48.944;9.240;2024-03-25T05:26:30;4.70;99.90
6518;DHT22;3292;48.944;9.240;2024-03-25T05:28:56;4.60;99.90
6518;DHT22;3292;48.944;9.240;2024-03-25T05:31:22;4.60;99.90
6518;DHT22;3292;48.944;9.240;2024-03-25T05:33:48;4.50;99.90
6518;DHT22;3292;48.944;9.240;2024-03-25T05:36:15;4.60;99.90
6518;DHT22;3292;48.944;9.240;2024-03-25T05:38:41;4.60;99.90
6518;DHT22;3292;48.944;9.240;2024-03-25T05:41:07;4.60;99.90
6518;DHT22;3292;48.944;9.240;2024-03-25T05:43:33;4.70;99.90
6518;DHT22;3292;48.944;9.240;2024-03-25T05:45:59;4.70;99.90
6518;DHT22;3292;48.944;9.240;2024-03-25T05:48:25;4.70;99.90
6518;DHT22;3292;48.944;9.240;2024-03-25T05:50:59;4.70;99.90
6518;DHT22;3292;48.944;9.240;2024-03-25T05:53:27;4.70;99.90
6518;DHT22;3292;48.944;9.240;2024-03-25T05:55:53;4.80;99.90
6518;DHT22;3292;48.944;9.240;2024-03-25T05:58:19;4.70;99.90
6518;DHT22;3292;48.944;9.240;2024-03-25T06:00:47;4.70;99.90
6518;DHT22;3292;48.944;9.240;2024-03-25T06:03:13;4.70;99.90
6518;DHT22;3292;48.944;9.240;2024-03-25T06:05:39;4.70;99.90
6518;DHT22;3292;48.944;9.240;2024-03-25T06:08:05;4.80;99.90
6518;DHT22;3292;48.944;9.240;2024-03-25T06:10:36;4.80;99.90
6518;DHT22;3292;48.944;9.240;2024-03-25T06:13:02;4.80;99.90
6518;DHT22;3292;48.944;9.240;2024-03-25T06:15:28;4.80;99.90
6518;DHT22;3292;48.944;9.240;2024-03-25T06:17:54;4.90;99.90
6518;DHT22;3292;48.944;9.240;2024-03-25T06:20:20;4.90;99.90
6518;DHT22;3292;48.944;9.240;2024-03-25T06:22:46;4.90;99.90
6518;DHT22;3292;48.944;9.240;2024-03-25T06:25:12;4.90;99.90
6518;DHT22;3292;48.944;9.240;2024-03-25T06:27:39;5.10;99.90
6518;DHT22;3292;48.944;9.240;2024-03-25T06:30:06;5.20;99.90
6518;DHT22;3292;48.944;9.240;2024-03-25T06:32:50;5.40;99.90
6518;DHT22;3292;48.944;9.240;2024-03-25T06:35:34;5.80;99.90
6518;DHT22;3292;48.944;9.240;2024-03-25T06:38:00;6.10;99.90
6518;DHT22;3292;48.944;9.240;2024-03-25T06:40:26;6.40;99.90
6518;DHT22;3292;48.944;9.240;2024-03-25T06:42:53;6.60;99.90
6518;DHT22;3292;48.944;9.240;2024-03-25T06:45:19;6.90;99.90
6518;DHT22;3292;48.944;9.240;2024-03-25T06:47:45;7.10;99.90
6518;DHT22;3292;48.944;9.240;2024-03-25T06:50:11;7.30;99.90
6518;DHT22;3292;48.944;9.240;2024-03-25T06:52:37;7.50;99.90
6518;DHT22;3292;48.944;9.240;2024-03-25T06:55:03;7.70;99.90
6518;DHT22;3292;48.944;9.240;2024-03-25T06:57:29;7.80;99.90
6518;DHT22;3292;48.944;9.240;2024-03-25T06:59:56;8.00;99.90
6518;DHT22;3292;48.944;9.240;2024-03-25T07:02:22;8.20;99.90
6518;DHT22;3292;48.944;9.240;2024-03-25T07:04:48;8.00;99.90
6518;DHT22;3292;48.944;9.240;2024-03-25T07:07:14;7.90;99.90
6518;DHT22;3292;48.944;9.240;2024-03-25T07:09:40;7.70;99.90
6518;DHT22;3292;48.944;9.240;2024-03-25T07:12:06;7.90;99.90
6518;DHT22;3292;48.944;9.240;2024-03-25T07:14:32;7.90;99.90
6518;DHT22;3292;48.944;9.240;2024-03-25T07:17:00;8.10;99.90
6518;DHT22;3292;48.944;9.240;2024-03-25T07:19:26;8.10;99.90
6518;DHT22;3292;48.944;9.240;2024-03-25T07:21:52;8.30;99.90
6518;DHT22;3292;48.944;9.240;2024-03-25T07:24:17;8.50;99.90
6518;DHT22;3292;48.944;9.240;2024-03-25T07:26:43;8.60;99.90
6518;DHT22;3292;48.944;9.240;2024-03-25T07:29:09;9.00;99.90
6518;DHT22;3292;48.944;9.240;2024-03-25T07:31:35;9.20;99.90
6518;DHT22;3292;48.944;9.240;2024-03-25T07:34:02;9.40;99.90
6518;DHT22;3292;48.944;9.240;2024-03-25T07:36:28;9.10;99.90
6518;DHT22;3292;48.944;9.240;2024-03-25T07:38:54;8.80;99.90
6518;DHT22;3292;48.944;9.240;2024-03-25T07:41:20;8.70;99.90
6518;DHT22;3292;48.944;9.240;2024-03-25T07:43:46;8.80;99.90
6518;DHT22;3292;48.944;9.240;2024-03-25T07:46:12;9.20;99.90
6518;DHT22;3292;48.944;9.240;2024-03-25T07:48:37;9.60;99.90
6518;DHT22;3292;48.944;9.240;2024-03-25T07:51:05;9.80;99.90
6518;DHT22;3292;48.944;9.240;2024-03-25T07:53:31;9.90;99.90
6518;DHT22;3292;48.944;9.240;2024-03-25T07:55:56;10.20;99.90
6518;DHT22;3292;48.944;9.240;2024-03-25T07:58:22;10.10;99.90
6518;DHT22;3292;48.944;9.240;2024-03-25T08:00:48;9.90;99.90
6518;DHT22;3292;48.944;9.240;2024-03-25T08:03:14;9.60;99.90
6518;DHT22;3292;48.944;9.240;2024-03-25T08:05:40;9.80;99.90
6518;DHT22;3292;48.944;9.240;2024-03-25T08:08:07;10.00;99.90
6518;DHT22;3292;48.944;9.240;2024-03-25T08:10:33;9.90;99.90
6518;DHT22;3292;48.944;9.240;2024-03-25T08:12:59;10.20;99.90
6518;DHT22;3292;48.944;9.240;2024-03-25T08:15:25;10.20;99.90
6518;DHT22;3292;48.944;9.240;2024-03-25T08:17:51;10.00;99.90
6518;DHT22;3292;48.944;9.240;2024-03-25T08:20:17;10.10;99.90
6518;DHT22;3292;48.944;9.240;2024-03-25T08:22:42;10.30;99.90
6518;DHT22;3292;48.944;9.240;2024-03-25T08:25:10;10.30;99.90
6518;DHT22;3292;48.944;9.240;2024-03-25T08:27:35;10.40;99.90
6518;DHT22;3292;48.944;9.240;2024-03-25T08:30:01;10.40;99.90
6518;DHT22;3292;48.944;9.240;2024-03-25T08:32:27;10.50;99.90
6518;DHT22;3292;48.944;9.240;2024-03-25T08:34:53;10.70;99.90
6518;DHT22;3292;48.944;9.240;2024-03-25T08:37:19;10.90;99.90
6518;DHT22;3292;48.944;9.240;2024-03-25T08:39:45;11.00;99.90
6518;DHT22;3292;48.944;9.240;2024-03-25T08:42:12;10.90;99.90
6518;DHT22;3292;48.944;9.240;2024-03-25T08:44:38;11.00;99.90
6518;DHT22;3292;48.944;9.240;2024-03-25T08:47:04;10.80;99.90
6518;DHT22;3292;48.944;9.240;2024-03-25T08:49:30;10.60;99.90
6518;DHT22;3292;48.944;9.240;2024-03-25T08:51:56;10.70;99.90
6518;DHT22;3292;48.944;9.240;2024-03-25T08:54:22;11.10;99.90
6518;DHT22;3292;48.944;9.240;2024-03-25T08:56:48;11.30;99.90
6518;DHT22;3292;48.944;9.240;2024-03-25T08:59:15;11.20;99.90
6518;DHT22;3292;48.944;9.240;2024-03-25T09:01:41;11.40;99.90
6518;DHT22;3292;48.944;9.240;2024-03-25T09:04:07;11.50;99.90
6518;DHT22;3292;48.944;9.240;2024-03-25T09:06:33;11.80;99.90
6518;DHT22;3292;48.944;9.240;2024-03-25T09:08:58;11.80;99.90
6518;DHT22;3292;48.944;9.240;2024-03-25T09:11:39;11.90;99.90
6518;DHT22;3292;48.944;9.240;2024-03-25T09:14:05;12.20;99.90
6518;DHT22;3292;48.944;9.240;2024-03-25T09:16:32;12.50;99.90
6518;DHT22;3292;48.944;9.240;2024-03-25T09:18:58;12.30;99.90
6518;DHT22;3292;48.944;9.240;2024-03-25T09:21:24;12.20;99.90
6518;DHT22;3292;48.944;9.240;2024-03-25T09:23:50;12.30;99.90
6518;DHT22;3292;48.944;9.240;2024-03-25T09:26:16;12.20;99.90
6518;DHT22;3292;48.944;9.240;2024-03-25T09:28:42;12.30;99.90
6518;DHT22;3292;48.944;9.240;2024-03-25T09:31:08;12.60;99.90
6518;DHT22;3292;48.944;9.240;2024-03-25T09:33:35;12.50;99.90
6518;DHT22;3292;48.944;9.240;2024-03-25T09:36:01;12.40;99.90
6518;DHT22;3292;48.944;9.240;2024-03-25T09:38:27;12.10;99.90
6518;DHT22;3292;48.944;9.240;2024-03-25T09:40:53;11.80;99.90
6518;DHT22;3292;48.944;9.240;2024-03-25T09:43:24;11.20;99.90
6518;DHT22;3292;48.944;9.240;2024-03-25T09:45:51;11.20;99.90
6518;DHT22;3292;48.944;9.240;2024-03-25T09:48:18;11.60;99.90
6518;DHT22;3292;48.944;9.240;2024-03-25T09:50:49;11.90;99.90
6518;DHT22;3292;48.944;9.240;2024-03-25T09:53:16;12.40;99.90
6518;DHT22;3292;48.944;9.240;2024-03-25T09:55:42;12.60;99.90
6518;DHT22;3292;48.944;9.240;2024-03-25T09:58:08;12.60;99.90
6518;DHT22;3292;48.944;9.240;2024-03-25T10:00:35;13.00;99.90
6518;DHT22;3292;48.944;9.240;2024-03-25T10:03:01;13.10;99.90
6518;DHT22;3292;48.944;9.240;2024-03-25T10:05:27;13.40;99.90
6518;DHT22;3292;48.944;9.240;2024-03-25T10:07:54;13.60;99.90
6518;DHT22;3292;48.944;9.240;2024-03-25T10:10:20;13.50;99.90
6518;DHT22;3292;48.944;9.240;2024-03-25T10:12:46;13.50;99.90
6518;DHT22;3292;48.944;9.240;2024-03-25T10:15:15;13.80;99.90
6518;DHT22;3292;48.944;9.240;2024-03-25T10:17:41;13.70;99.90
6518;DHT22;3292;48.944;9.240;2024-03-25T10:20:13;13.30;99.90
6518;DHT22;3292;48.944;9.240;2024-03-25T10:22:41;13.40;99.90
6518;DHT22;3292;48.944;9.240;2024-03-25T10:25:19;13.20;99.90
6518;DHT22;3292;48.944;9.240;2024-03-25T10:27:53;13.10;99.90
6518;DHT22;3292;48.944;9.240;2024-03-25T10:30:19;13.30;99.90
6518;DHT22;3292;48.944;9.240;2024-03-25T10:32:45;13.30;99.90
6518;DHT22;3292;48.944;9.240;2024-03-25T10:35:12;13.00;99.90
6518;DHT22;3292;48.944;9.240;2024-03-25T10:37:39;13.00;99.90
6518;DHT22;3292;48.944;9.240;2024-03-25T10:40:09;13.10;99.90
6518;DHT22;3292;48.944;9.240;2024-03-25T10:42:39;13.30;99.90
6518;DHT22;3292;48.944;9.240;2024-03-25T10:45:09;13.80;99.90
6518;DHT22;3292;48.944;9.240;2024-03-25T10:47:35;14.00;99.90
6518;DHT22;3292;48.944;9.240;2024-03-25T10:50:07;13.40;99.90
6518;DHT22;3292;48.944;9.240;2024-03-25T10:52:36;13.00;99.90
6518;DHT22;3292;48.944;9.240;2024-03-25T10:55:03;13.20;99.90
6518;DHT22;3292;48.944;9.240;2024-03-25T10:57:31;13.30;99.90
6518;DHT22;3292;48.944;9.240;2024-03-25T10:59:57;13.60;99.90
6518;DHT22;3292;48.944;9.240;2024-03-25T11:02:23;13.90;99.90
6518;DHT22;3292;48.944;9.240;2024-03-25T11:04:50;13.90;99.90
6518;DHT22;3292;48.944;9.240;2024-03-25T11:07:16;14.00;99.90
6518;DHT22;3292;48.944;9.240;2024-03-25T11:09:42;14.10;99.90
6518;DHT22;3292;48.944;9.240;2024-03-25T11:12:10;13.70;99.90
6518;DHT22;3292;48.944;9.240;2024-03-25T11:14:37;13.90;99.90
6518;DHT22;3292;48.944;9.240;2024-03-25T11:17:14;14.10;99.90
6518;DHT22;3292;48.944;9.240;2024-03-25T11:19:41;13.90;99.90
6518;DHT22;3292;48.944;9.240;2024-03-25T11:22:08;14.10;99.90
6518;DHT22;3292;48.944;9.240;2024-03-25T11:24:35;13.90;99.90
6518;DHT22;3292;48.944;9.240;2024-03-25T11:27:01;13.60;99.90
6518;DHT22;3292;48.944;9.240;2024-03-25T11:29:27;13.80;99.90
6518;DHT22;3292;48.944;9.240;2024-03-25T11:31:55;14.00;99.90
6518;DHT22;3292;48.944;9.240;2024-03-25T11:34:24;13.90;98.80
6518;DHT22;3292;48.944;9.240;2024-03-25T11:36:49;13.90;99.90
6518;DHT22;3292;48.944;9.240;2024-03-25T11:39:16;13.80;99.20
6518;DHT22;3292;48.944;9.240;2024-03-25T11:41:42;13.70;98.50
6518;DHT22;3292;48.944;9.240;2024-03-25T11:44:09;13.90;99.90
6518;DHT22;3292;48.944;9.240;2024-03-25T11:46:36;14.10;99.70
6518;DHT22;3292;48.944;9.240;2024-03-25T11:49:05;14.50;98.80
6518;DHT22;3292;48.944;9.240;2024-03-25T11:51:31;14.50;99.30
6518;DHT22;3292;48.944;9.240;2024-03-25T11:53:57;14.10;96.40
6518;DHT22;3292;48.944;9.240;2024-03-25T11:56:23;13.50;95.00
6518;DHT22;3292;48.944;9.240;2024-03-25T11:58:49;13.30;98.60
6518;DHT22;3292;48.944;9.240;2024-03-25T12:01:15;13.20;97.00
6518;DHT22;3292;48.944;9.240;2024-03-25T12:03:41;13.20;96.80
6518;DHT22;3292;48.944;9.240;2024-03-25T12:06:08;13.30;97.40
6518;DHT22;3292;48.944;9.240;2024-03-25T12:08:34;13.30;94.90
6518;DHT22;3292;48.944;9.240;2024-03-25T12:11:00;13.00;95.90
6518;DHT22;3292;48.944;9.240;2024-03-25T12:13:45;12.90;95.60
6518;DHT22;3292;48.944;9.240;2024-03-25T12:16:11;13.40;97.50
6518;DHT22;3292;48.944;9.240;2024-03-25T12:18:40;13.60;98.40
6518;DHT22;3292;48.944;9.240;2024-03-25T12:21:06;13.50;97.30
6518;DHT22;3292;48.944;9.240;2024-03-25T12:23:34;13.40;97.90
6518;DHT22;3292;48.944;9.240;2024-03-25T12:26:00;13.40;98.40
6518;DHT22;3292;48.944;9.240;2024-03-25T12:28:26;13.50;95.60
6518;DHT22;3292;48.944;9.240;2024-03-25T12:30:53;13.30;96.60
6518;DHT22;3292;48.944;9.240;2024-03-25T12:33:20;13.30;95.40
6518;DHT22;3292;48.944;9.240;2024-03-25T12:35:47;13.50;95.90
6518;DHT22;3292;48.944;9.240;2024-03-25T12:38:23;13.70;97.80
6518;DHT22;3292;48.944;9.240;2024-03-25T12:40:51;13.70;95.70
6518;DHT22;3292;48.944;9.240;2024-03-25T12:43:17;13.70;97.50
6518;DHT22;3292;48.944;9.240;2024-03-25T12:45:43;14.00;97.80
6518;DHT22;3292;48.944;9.240;2024-03-25T12:48:09;14.00;97.10
6518;DHT22;3292;48.944;9.240;2024-03-25T12:50:35;14.10;98.50
6518;DHT22;3292;48.944;9.240;2024-03-25T12:53:01;14.20;97.70
6518;DHT22;3292;48.944;9.240;2024-03-25T12:55:27;14.30;95.70
6518;DHT22;3292;48.944;9.240;2024-03-25T12:57:55;14.10;96.20
6518;DHT22;3292;48.944;9.240;2024-03-25T13:00:20;14.00;96.60
6518;DHT22;3292;48.944;9.240;2024-03-25T13:02:46;14.00;96.50
6518;DHT22;3292;48.944;9.240;2024-03-25T13:05:12;14.00;96.90
6518;DHT22;3292;48.944;9.240;2024-03-25T13:07:38;14.00;96.60
6518;DHT22;3292;48.944;9.240;2024-03-25T13:10:05;13.50;94.60
6518;DHT22;3292;48.944;9.240;2024-03-25T13:12:31;13.30;95.20
6518;DHT22;3292;48.944;9.240;2024-03-25T13:14:58;13.30;96.70
6518;DHT22;3292;48.944;9.240;2024-03-25T13:17:24;13.30;95.60
6518;DHT22;3292;48.944;9.240;2024-03-25T13:19:50;13.00;96.70
6518;DHT22;3292;48.944;9.240;2024-03-25T13:22:16;13.10;96.80
6518;DHT22;3292;48.944;9.240;2024-03-25T13:24:42;13.10;95.20
6518;DHT22;3292;48.944;9.240;2024-03-25T13:27:08;13.10;96.40
6518;DHT22;3292;48.944;9.240;2024-03-25T13:29:33;13.20;94.90
6518;DHT22;3292;48.944;9.240;2024-03-25T13:32:01;13.20;95.80
6518;DHT22;3292;48.944;9.240;2024-03-25T13:34:27;13.30;97.40
6518;DHT22;3292;48.944;9.240;2024-03-25T13:36:53;13.50;95.40
6518;DHT22;3292;48.944;9.240;2024-03-25T13:39:22;13.50;98.00
6518;DHT22;3292;48.944;9.240;2024-03-25T13:41:48;13.50;95.50
6518;DHT22;3292;48.944;9.240;2024-03-25T13:44:13;13.60;95.80
6518;DHT22;3292;48.944;9.240;2024-03-25T13:46:39;13.60;97.40
6518;DHT22;3292;48.944;9.240;2024-03-25T13:49:07;13.50;94.10
6518;DHT22;3292;48.944;9.240;2024-03-25T13:51:33;13.30;92.80
6518;DHT22;3292;48.944;9.240;2024-03-25T13:53:59;13.30;93.80
6518;DHT22;3292;48.944;9.240;2024-03-25T13:56:25;13.10;94.40
6518;DHT22;3292;48.944;9.240;2024-03-25T13:58:50;13.00;92.50
6518;DHT22;3292;48.944;9.240;2024-03-25T14:01:17;13.00;94.60
6518;DHT22;3292;48.944;9.240;2024-03-25T14:03:43;13.40;96.50
6518;DHT22;3292;48.944;9.240;2024-03-25T14:06:10;13.60;94.30
6518;DHT22;3292;48.944;9.240;2024-03-25T14:08:36;13.70;95.10
6518;DHT22;3292;48.944;9.240;2024-03-25T14:11:02;13.70;94.60
6518;DHT22;3292;48.944;9.240;2024-03-25T14:13:29;13.60;92.80
6518;DHT22;3292;48.944;9.240;2024-03-25T14:15:54;13.50;94.00
6518;DHT22;3292;48.944;9.240;2024-03-25T14:18:20;13.40;93.70
6518;DHT22;3292;48.944;9.240;2024-03-25T14:20:46;13.40;93.40
6518;DHT22;3292;48.944;9.240;2024-03-25T14:23:15;13.30;92.00
6518;DHT22;3292;48.944;9.240;2024-03-25T14:25:41;13.10;94.30
6518;DHT22;3292;48.944;9.240;2024-03-25T14:28:07;13.10;94.60
6518;DHT22;3292;48.944;9.240;2024-03-25T14:30:33;13.20;93.10
6518;DHT22;3292;48.944;9.240;2024-03-25T14:32:58;13.20;94.30
6518;DHT22;3292;48.944;9.240;2024-03-25T14:35:24;13.20;94.30
6518;DHT22;3292;48.944;9.240;2024-03-25T14:37:50;13.30;94.20
6518;DHT22;3292;48.944;9.240;2024-03-25T14:40:17;13.40;93.80
6518;DHT22;3292;48.944;9.240;2024-03-25T14:42:44;13.10;92.80
6518;DHT22;3292;48.944;9.240;2024-03-25T14:45:09;13.20;93.80
6518;DHT22;3292;48.944;9.240;2024-03-25T14:47:35;13.20;93.40
6518;DHT22;3292;48.944;9.240;2024-03-25T14:50:01;13.20;93.90
6518;DHT22;3292;48.944;9.240;2024-03-25T14:52:27;13.20;92.70
6518;DHT22;3292;48.944;9.240;2024-03-25T14:54:53;13.30;93.40
6518;DHT22;3292;48.944;9.240;2024-03-25T14:57:20;13.10;92.20
6518;DHT22;3292;48.944;9.240;2024-03-25T14:59:46;13.10;93.20
6518;DHT22;3292;48.944;9.240;2024-03-25T15:02:12;13.00;92.70
6518;DHT22;3292;48.944;9.240;2024-03-25T15:04:38;13.10;93.50
6518;DHT22;3292;48.944;9.240;2024-03-25T15:07:04;13.30;93.60
6518;DHT22;3292;48.944;9.240;2024-03-25T15:09:30;13.20;92.00
6518;DHT22;3292;48.944;9.240;2024-03-25T15:11:57;13.00;91.50
6518;DHT22;3292;48.944;9.240;2024-03-25T15:14:27;13.00;93.30
6518;DHT22;3292;48.944;9.240;2024-03-25T15:16:53;13.00;94.00
6518;DHT22;3292;48.944;9.240;2024-03-25T15:19:19;13.10;93.40
6518;DHT22;3292;48.944;9.240;2024-03-25T15:21:46;13.00;91.00
6518;DHT22;3292;48.944;9.240;2024-03-25T15:24:12;12.90;90.90
6518;DHT22;3292;48.944;9.240;2024-03-25T15:26:38;12.90;91.10
6518;DHT22;3292;48.944;9.240;2024-03-25T15:29:04;12.70;90.70
6518;DHT22;3292;48.944;9.240;2024-03-25T15:31:31;12.70;91.20
6518;DHT22;3292;48.944;9.240;2024-03-25T15:33:57;12.70;91.30
6518;DHT22;3292;48.944;9.240;2024-03-25T15:36:23;12.80;90.70
6518;DHT22;3292;48.944;9.240;2024-03-25T15:38:49;12.70;90.90
6518;DHT22;3292;48.944;9.240;2024-03-25T15:41:14;12.80;91.20
6518;DHT22;3292;48.944;9.240;2024-03-25T15:43:40;12.90;90.20
6518;DHT22;3292;48.944;9.240;2024-03-25T15:46:06;12.90;90.30
6518;DHT22;3292;48.944;9.240;2024-03-25T15:48:33;13.00;92.90
6518;DHT22;3292;48.944;9.240;2024-03-25T15:50:59;13.10;91.00
6518;DHT22;3292;48.944;9.240;2024-03-25T15:53:25;13.00;88.90
6518;DHT22;3292;48.944;9.240;2024-03-25T15:55:51;12.90;89.90
6518;DHT22;3292;48.944;9.240;2024-03-25T15:58:17;12.80;89.40
6518;DHT22;3292;48.944;9.240;2024-03-25T16:00:43;12.70;91.60
6518;DHT22;3292;48.944;9.240;2024-03-25T16:03:09;12.60;90.20
6518;DHT22;3292;48.944;9.240;2024-03-25T16:05:36;12.60;91.10